sensor_id;sensor_type;location;lat;lon;timestamp;temperature;humidity
33149;DHT22;19506;51.040;3.856;2023-05-21T00:01:02;19.30;99.90
33149;DHT22;19506;51.040;3.856;2023-05-21T00:03:30;19.30;99.90
33149;DHT22;19506;51.040;3.856;2023-05-21T00:05:56;19.30;99.90
33149;DHT22;19506;51.040;3.856;2023-05-21T00:08:22;19.30;99.90
33149;DHT22;19506;51.040;3.856;2023-05-21T00:10:48;19.30;99.90
33149;DHT22;19506;51.040;3.856;2023-05-21T00:13:14;19.30;99.90
33149;DHT22;19506;51.040;3.856;2023-05-21T00:15:39;19.30;99.90
33149;DHT22;19506;51.040;3.856;2023-05-21T00:18:05;19.30;99.90
33149;DHT22;19506;51.040;3.856;2023-05-21T00:20:31;19.30;99.90
33149;DHT22;19506;51.040;3.856;2023-05-21T00:22:58;19.30;99.90
33149;DHT22;19506;51.040;3.856;2023-05-21T00:25:23;19.30;99.90
33149;DHT22;19506;51.040;3.856;2023-05-21T00:27:49;19.30;99.90
33149;DHT22;19506;51.040;3.856;2023-05-21T00:30:15;19.30;99.90
33149;DHT22;19506;51.040;3.856;2023-05-21T00:32:41;19.30;99.90
33149;DHT22;19506;51.040;3.856;2023-05-21T00:35:07;19.30;99.90
33149;DHT22;19506;51.040;3.856;2023-05-21T00:37:33;19.20;99.90
33149;DHT22;19506;51.040;3.856;2023-05-21T00:40:03;19.30;99.90
33149;DHT22;19506;51.040;3.856;2023-05-21T00:42:35;19.20;99.90
33149;DHT22;19506;51.040;3.856;2023-05-21T00:45:05;19.30;99.90
33149;DHT22;19506;51.040;3.856;2023-05-21T00:47:31;19.30;99.90
33149;DHT22;19506;51.040;3.856;2023-05-21T00:49:57;19.30;99.90
33149;DHT22;19506;51.040;3.856;2023-05-21T00:52:23;19.30;99.90
33149;DHT22;19506;51.040;3.856;2023-05-21T00:54:51;19.20;99.90
33149;DHT22;19506;51.040;3.856;2023-05-21T00:57:18;19.30;99.90
33149;DHT22;19506;51.040;3.856;2023-05-21T00:59:50;19.30;99.90
33149;DHT22;19506;51.040;3.856;2023-05-21T01:02:16;19.20;99.90
33149;DHT22;19506;51.040;3.856;2023-05-21T01:04:44;19.20;99.90
33149;DHT22;19506;51.040;3.856;2023-05-21T01:07:10;19.20;99.90
33149;DHT22;19506;51.040;3.856;2023-05-21T01:09:37;19.20;99.90
33149;DHT22;19506;51.040;3.856;2023-05-21T01:12:04;19.20;99.90
33149;DHT22;19506;51.040;3.856;2023-05-21T01:14:30;19.20;99.90
33149;DHT22;19506;51.040;3.856;2023-05-21T01:16:57;19.20;99.90
33149;DHT22;19506;51.040;3.856;2023-05-21T01:19:26;19.20;99.90
33149;DHT22;19506;51.040;3.856;2023-05-21T01:21:56;19.20;99.90
33149;DHT22;19506;51.040;3.856;2023-05-21T01:24:24;19.20;99.90
33149;DHT22;19506;51.040;3.856;2023-05-21T01:26:50;19.20;99.90
33149;DHT22;19506;51.040;3.856;2023-05-21T01:29:17;19.20;99.90
33149;DHT22;19506;51.040;3.856;2023-05-21T01:34:23;19.10;99.90
33149;DHT22;19506;51.040;3.856;2023-05-21T01:37:13;19.10;99.90
33149;DHT22;19506;51.040;3.856;2023-05-21T01:39:43;19.10;99.90
33149;DHT22;19506;51.040;3.856;2023-05-21T01:42:11;19.10;99.90
33149;DHT22;19506;51.040;3.856;2023-05-21T01:44:38;19.10;99.90
33149;DHT22;19506;51.040;3.856;2023-05-21T01:47:05;19.10;99.90
33149;DHT22;19506;51.040;3.856;2023-05-21T01:49:31;19.10;99.90
33149;DHT22;19506;51.040;3.856;2023-05-21T01:51:57;19.10;99.90
33149;DHT22;19506;51.040;3.856;2023-05-21T01:54:22;19.10;99.90
33149;DHT22;19506;51.040;3.856;2023-05-21T01:56:48;19.10;99.90
33149;DHT22;19506;51.040;3.856;2023-05-21T01:59:15;19.10;99.90
33149;DHT22;19506;51.040;3.856;2023-05-21T02:01:42;19.10;99.90
33149;DHT22;19506;51.040;3.856;2023-05-21T02:04:07;19.10;99.90
33149;DHT22;19506;51.040;3.856;2023-05-21T02:06:33;19.10;99.90
33149;DHT22;19506;51.040;3.856;2023-05-21T02:09:00;19.10;99.90
33149;DHT22;19506;51.040;3.856;2023-05-21T02:11:26;19.10;99.90
33149;DHT22;19506;51.040;3.856;2023-05-21T02:13:52;19.10;99.90
33149;DHT22;19506;51.040;3.856;2023-05-21T02:16:18;19.10;99.90
33149;DHT22;19506;51.040;3.856;2023-05-21T02:18:46;19.10;99.90
33149;DHT22;19506;51.040;3.856;2023-05-21T02:21:15;19.10;99.90
33149;DHT22;19506;51.040;3.856;2023-05-21T02:23:41;19.00;99.90
33149;DHT22;19506;51.040;3.856;2023-05-21T02:26:07;19.10;99.90
33149;DHT22;19506;51.040;3.856;2023-05-21T02:28:33;19.00;99.90
33149;DHT22;19506;51.040;3.856;2023-05-21T02:31:00;19.00;99.90
33149;DHT22;19506;51.040;3.856;2023-05-21T02:33:26;19.00;99.90
33149;DHT22;19506;51.040;3.856;2023-05-21T02:35:51;19.00;99.90
33149;DHT22;19506;51.040;3.856;2023-05-21T02:38:17;19.00;99.90
33149;DHT22;19506;51.040;3.856;2023-05-21T02:40:44;19.00;99.90
33149;DHT22;19506;51.040;3.856;2023-05-21T02:43:10;19.00;99.90
33149;DHT22;19506;51.040;3.856;2023-05-21T02:45:36;19.00;99.90
33149;DHT22;19506;51.040;3.856;2023-05-21T02:48:01;19.00;99.90
33149;DHT22;19506;51.040;3.856;2023-05-21T02:50:27;19.00;99.90
33149;DHT22;19506;51.040;3.856;2023-05-21T02:52:53;19.00;99.90
33149;DHT22;19506;51.040;3.856;2023-05-21T02:55:18;19.00;99.90
33149;DHT22;19506;51.040;3.856;2023-05-21T02:57:45;19.00;99.90
33149;DHT22;19506;51.040;3.856;2023-05-21T03:00:11;18.90;99.90
33149;DHT22;19506;51.040;3.856;2023-05-21T03:02:36;18.90;99.90
33149;DHT22;19506;51.040;3.856;2023-05-21T03:05:02;19.00;99.90
33149;DHT22;19506;51.040;3.856;2023-05-21T03:07:28;19.00;99.90
33149;DHT22;19506;51.040;3.856;2023-05-21T03:09:53;18.90;99.90
33149;DHT22;19506;51.040;3.856;2023-05-21T03:12:19;19.00;99.90
33149;DHT22;19506;51.040;3.856;2023-05-21T03:14:45;19.00;99.90
33149;DHT22;19506;51.040;3.856;2023-05-21T03:17:11;19.00;99.90
33149;DHT22;19506;51.040;3.856;2023-05-21T03:19:42;18.90;99.90
33149;DHT22;19506;51.040;3.856;2023-05-21T03:22:08;18.90;99.90
33149;DHT22;19506;51.040;3.856;2023-05-21T03:24:34;18.90;99.90
33149;DHT22;19506;51.040;3.856;2023-05-21T03:27:01;18.90;99.90
33149;DHT22;19506;51.040;3.856;2023-05-21T03:29:27;18.90;99.90
33149;DHT22;19506;51.040;3.856;2023-05-21T03:31:53;18.90;99.90
33149;DHT22;19506;51.040;3.856;2023-05-21T03:34:19;18.90;99.90
33149;DHT22;19506;51.040;3.856;2023-05-21T03:36:46;18.90;99.90
33149;DHT22;19506;51.040;3.856;2023-05-21T03:39:11;18.90;99.90
33149;DHT22;19506;51.040;3.856;2023-05-21T03:41:37;18.90;99.90
33149;DHT22;19506;51.040;3.856;2023-05-21T03:44:03;18.90;99.90
33149;DHT22;19506;51.040;3.856;2023-05-21T03:46:28;18.90;99.90
33149;DHT22;19506;51.040;3.856;2023-05-21T03:48:54;18.90;99.90
33149;DHT22;19506;51.040;3.856;2023-05-21T03:51:20;18.90;99.90
33149;DHT22;19506;51.040;3.856;2023-05-21T03:53:45;18.90;99.90
33149;DHT22;19506;51.040;3.856;2023-05-21T03:56:11;18.90;99.90
33149;DHT22;19506;51.040;3.856;2023-05-21T03:58:37;18.90;99.90
33149;DHT22;19506;51.040;3.856;2023-05-21T04:01:03;18.90;99.90
33149;DHT22;19506;51.040;3.856;2023-05-21T04:03:29;18.90;99.90
33149;DHT22;19506;51.040;3.856;2023-05-21T04:05:57;18.80;99.90
33149;DHT22;19506;51.040;3.856;2023-05-21T04:08:22;18.80;99.90
33149;DHT22;19506;51.040;3.856;2023-05-21T04:10:48;18.90;99.90
33149;DHT22;19506;51.040;3.856;2023-05-21T04:13:14;18.90;99.90
33149;DHT22;19506;51.040;3.856;2023-05-21T04:15:40;18.80;99.90
33149;DHT22;19506;51.040;3.856;2023-05-21T04:18:05;18.80;99.90
33149;DHT22;19506;51.040;3.856;2023-05-21T04:20:31;18.80;99.90
33149;DHT22;19506;51.040;3.856;2023-05-21T04:22:57;18.80;99.90
33149;DHT22;19506;51.040;3.856;2023-05-21T04:25:22;18.80;99.90
33149;DHT22;19506;51.040;3.856;2023-05-21T04:27:49;18.80;99.90
33149;DHT22;19506;51.040;3.856;2023-05-21T04:30:15;18.80;99.90
33149;DHT22;19506;51.040;3.856;2023-05-21T04:32:41;18.80;99.90
33149;DHT22;19506;51.040;3.856;2023-05-21T04:35:10;18.80;99.90
33149;DHT22;19506;51.040;3.856;2023-05-21T04:37:36;18.80;99.90
33149;DHT22;19506;51.040;3.856;2023-05-21T04:40:07;18.80;99.90
33149;DHT22;19506;51.040;3.856;2023-05-21T04:42:35;18.80;99.90
33149;DHT22;19506;51.040;3.856;2023-05-21T04:45:01;18.70;99.90
33149;DHT22;19506;51.040;3.856;2023-05-21T04:47:27;18.80;99.90
33149;DHT22;19506;51.040;3.856;2023-05-21T04:49:55;18.80;99.90
33149;DHT22;19506;51.040;3.856;2023-05-21T04:52:20;18.80;99.90
33149;DHT22;19506;51.040;3.856;2023-05-21T04:54:46;18.80;99.90
33149;DHT22;19506;51.040;3.856;2023-05-21T04:57:12;18.70;99.90
33149;DHT22;19506;51.040;3.856;2023-05-21T04:59:37;18.70;99.90
33149;DHT22;19506;51.040;3.856;2023-05-21T05:02:04;18.80;99.90
33149;DHT22;19506;51.040;3.856;2023-05-21T05:04:30;18.70;99.90
33149;DHT22;19506;51.040;3.856;2023-05-21T05:06:56;18.70;99.90
33149;DHT22;19506;51.040;3.856;2023-05-21T05:09:22;18.70;99.90
33149;DHT22;19506;51.040;3.856;2023-05-21T05:11:49;18.80;99.90
33149;DHT22;19506;51.040;3.856;2023-05-21T05:14:15;18.80;99.90
33149;DHT22;19506;51.040;3.856;2023-05-21T05:16:41;18.80;99.90
33149;DHT22;19506;51.040;3.856;2023-05-21T05:19:07;18.80;99.90
33149;DHT22;19506;51.040;3.856;2023-05-21T05:21:33;18.80;99.90
33149;DHT22;19506;51.040;3.856;2023-05-21T05:23:59;18.80;99.90
33149;DHT22;19506;51.040;3.856;2023-05-21T05:26:25;18.80;99.90
33149;DHT22;19506;51.040;3.856;2023-05-21T05:28:51;18.70;99.90
33149;DHT22;19506;51.040;3.856;2023-05-21T05:31:16;18.80;99.90
33149;DHT22;19506;51.040;3.856;2023-05-21T05:33:42;18.80;99.90
33149;DHT22;19506;51.040;3.856;2023-05-21T05:36:08;18.80;99.90
33149;DHT22;19506;51.040;3.856;2023-05-21T05:38:34;18.80;99.90
33149;DHT22;19506;51.040;3.856;2023-05-21T05:41:00;18.80;99.90
33149;DHT22;19506;51.040;3.856;2023-05-21T05:43:26;18.80;99.90
33149;DHT22;19506;51.040;3.856;2023-05-21T05:45:52;18.80;99.90
33149;DHT22;19506;51.040;3.856;2023-05-21T05:48:17;18.80;99.90
33149;DHT22;19506;51.040;3.856;2023-05-21T05:50:44;18.80;99.90
33149;DHT22;19506;51.040;3.856;2023-05-21T05:53:09;18.80;99.90
33149;DHT22;19506;51.040;3.856;2023-05-21T05:55:38;18.90;99.90
33149;DHT22;19506;51.040;3.856;2023-05-21T05:58:03;18.90;99.90
33149;DHT22;19506;51.040;3.856;2023-05-21T06:00:29;18.90;99.90
33149;DHT22;19506;51.040;3.856;2023-05-21T06:02:55;18.90;99.90
33149;DHT22;19506;51.040;3.856;2023-05-21T06:05:20;18.90;99.90
33149;DHT22;19506;51.040;3.856;2023-05-21T06:07:46;18.90;99.90
33149;DHT22;19506;51.040;3.856;2023-05-21T06:10:12;18.90;99.90
33149;DHT22;19506;51.040;3.856;2023-05-21T06:12:37;18.90;99.90
33149;DHT22;19506;51.040;3.856;2023-05-21T06:15:04;18.90;99.90
33149;DHT22;19506;51.040;3.856;2023-05-21T06:17:30;18.90;99.90
33149;DHT22;19506;51.040;3.856;2023-05-21T06:19:56;18.90;99.90
33149;DHT22;19506;51.040;3.856;2023-05-21T06:22:22;18.90;99.90
33149;DHT22;19506;51.040;3.856;2023-05-21T06:24:47;19.00;99.90
33149;DHT22;19506;51.040;3.856;2023-05-21T06:27:13;18.90;99.90
33149;DHT22;19506;51.040;3.856;2023-05-21T06:29:38;18.90;99.90
33149;DHT22;19506;51.040;3.856;2023-05-21T06:34:31;18.80;99.90
33149;DHT22;19506;51.040;3.856;2023-05-21T06:36:57;18.80;99.90
33149;DHT22;19506;51.040;3.856;2023-05-21T06:39:23;18.80;99.90
33149;DHT22;19506;51.040;3.856;2023-05-21T06:41:49;18.80;99.90
33149;DHT22;19506;51.040;3.856;2023-05-21T06:44:14;18.80;99.90
33149;DHT22;19506;51.040;3.856;2023-05-21T06:46:41;18.80;99.90
33149;DHT22;19506;51.040;3.856;2023-05-21T06:49:07;18.90;99.90
33149;DHT22;19506;51.040;3.856;2023-05-21T06:51:32;18.90;99.90
33149;DHT22;19506;51.040;3.856;2023-05-21T06:53:58;18.90;99.90
33149;DHT22;19506;51.040;3.856;2023-05-21T06:56:24;18.90;99.90
33149;DHT22;19506;51.040;3.856;2023-05-21T06:58:50;18.90;99.90
33149;DHT22;19506;51.040;3.856;2023-05-21T07:01:16;19.00;99.90
33149;DHT22;19506;51.040;3.856;2023-05-21T07:03:42;19.10;99.90
33149;DHT22;19506;51.040;3.856;2023-05-21T07:06:07;19.00;99.90
33149;DHT22;19506;51.040;3.856;2023-05-21T07:08:33;19.20;99.90
33149;DHT22;19506;51.040;3.856;2023-05-21T07:10:59;19.20;99.90
33149;DHT22;19506;51.040;3.856;2023-05-21T07:13:25;19.30;99.90
33149;DHT22;19506;51.040;3.856;2023-05-21T07:15:50;19.30;99.90
33149;DHT22;19506;51.040;3.856;2023-05-21T07:18:16;19.40;99.90
33149;DHT22;19506;51.040;3.856;2023-05-21T07:20:41;19.30;99.90
33149;DHT22;19506;51.040;3.856;2023-05-21T07:23:07;19.30;99.90
33149;DHT22;19506;51.040;3.856;2023-05-21T07:25:33;19.20;99.90
33149;DHT22;19506;51.040;3.856;2023-05-21T07:27:59;19.20;99.90
33149;DHT22;19506;51.040;3.856;2023-05-21T07:30:25;19.20;99.90
33149;DHT22;19506;51.040;3.856;2023-05-21T07:32:50;19.30;99.90
33149;DHT22;19506;51.040;3.856;2023-05-21T07:35:17;19.30;99.90
33149;DHT22;19506;51.040;3.856;2023-05-21T07:37:43;19.30;99.90
33149;DHT22;19506;51.040;3.856;2023-05-21T07:40:09;19.40;99.90
33149;DHT22;19506;51.040;3.856;2023-05-21T07:42:35;19.30;99.90
33149;DHT22;19506;51.040;3.856;2023-05-21T07:45:00;19.30;99.90
33149;DHT22;19506;51.040;3.856;2023-05-21T07:47:26;19.30;99.90
33149;DHT22;19506;51.040;3.856;2023-05-21T07:49:52;19.30;99.90
33149;DHT22;19506;51.040;3.856;2023-05-21T07:52:18;19.40;99.90
33149;DHT22;19506;51.040;3.856;2023-05-21T07:54:43;19.40;99.90
33149;DHT22;19506;51.040;3.856;2023-05-21T07:57:09;19.40;99.90
33149;DHT22;19506;51.040;3.856;2023-05-21T07:59:34;19.40;99.90
33149;DHT22;19506;51.040;3.856;2023-05-21T08:02:00;19.40;99.90
33149;DHT22;19506;51.040;3.856;2023-05-21T08:04:26;19.40;99.90
33149;DHT22;19506;51.040;3.856;2023-05-21T08:06:51;19.50;99.90
33149;DHT22;19506;51.040;3.856;2023-05-21T08:09:18;19.40;99.90
33149;DHT22;19506;51.040;3.856;2023-05-21T08:11:44;19.50;99.90
33149;DHT22;19506;51.040;3.856;2023-05-21T08:14:10;19.50;99.90
33149;DHT22;19506;51.040;3.856;2023-05-21T08:16:36;19.50;99.90
33149;DHT22;19506;51.040;3.856;2023-05-21T08:19:02;19.50;99.90
33149;DHT22;19506;51.040;3.856;2023-05-21T08:21:27;19.40;99.90
33149;DHT22;19506;51.040;3.856;2023-05-21T08:23:53;19.40;99.90
33149;DHT22;19506;51.040;3.856;2023-05-21T08:26:19;19.40;99.90
33149;DHT22;19506;51.040;3.856;2023-05-21T08:28:45;19.40;99.90
33149;DHT22;19506;51.040;3.856;2023-05-21T08:31:11;19.40;99.90
33149;DHT22;19506;51.040;3.856;2023-05-21T08:33:37;19.40;99.90
33149;DHT22;19506;51.040;3.856;2023-05-21T08:36:06;19.40;99.90
33149;DHT22;19506;51.040;3.856;2023-05-21T08:38:33;19.30;99.90
33149;DHT22;19506;51.040;3.856;2023-05-21T08:40:59;19.30;99.90
33149;DHT22;19506;51.040;3.856;2023-05-21T08:43:27;19.30;99.90
33149;DHT22;19506;51.040;3.856;2023-05-21T08:45:54;19.30;99.90
33149;DHT22;19506;51.040;3.856;2023-05-21T08:48:22;19.40;99.90
33149;DHT22;19506;51.040;3.856;2023-05-21T08:50:53;19.40;99.90
33149;DHT22;19506;51.040;3.856;2023-05-21T08:53:19;19.40;99.90
33149;DHT22;19506;51.040;3.856;2023-05-21T08:55:45;19.40;99.90
33149;DHT22;19506;51.040;3.856;2023-05-21T08:58:11;19.40;99.90
33149;DHT22;19506;51.040;3.856;2023-05-21T09:00:38;19.40;99.90
33149;DHT22;19506;51.040;3.856;2023-05-21T09:03:04;19.40;99.90
33149;DHT22;19506;51.040;3.856;2023-05-21T09:05:37;19.40;99.90
33149;DHT22;19506;51.040;3.856;2023-05-21T09:08:14;19.40;99.90
33149;DHT22;19506;51.040;3.856;2023-05-21T09:10:48;19.40;99.90
33149;DHT22;19506;51.040;3.856;2023-05-21T09:13:16;19.40;99.90
33149;DHT22;19506;51.040;3.856;2023-05-21T09:15:45;19.40;99.90
33149;DHT22;19506;51.040;3.856;2023-05-21T09:18:11;19.30;99.90
33149;DHT22;19506;51.040;3.856;2023-05-21T09:20:38;19.30;99.90
33149;DHT22;19506;51.040;3.856;2023-05-21T09:23:05;19.30;99.90
33149;DHT22;19506;51.040;3.856;2023-05-21T09:25:37;19.30;99.90
33149;DHT22;19506;51.040;3.856;2023-05-21T09:28:03;19.30;99.90
33149;DHT22;19506;51.040;3.856;2023-05-21T09:30:29;19.30;99.90
33149;DHT22;19506;51.040;3.856;2023-05-21T09:32:58;19.30;99.90
33149;DHT22;19506;51.040;3.856;2023-05-21T09:35:24;19.30;99.90
33149;DHT22;19506;51.040;3.856;2023-05-21T09:37:51;19.30;99.90
33149;DHT22;19506;51.040;3.856;2023-05-21T09:40:18;19.40;99.90
33149;DHT22;19506;51.040;3.856;2023-05-21T09:42:51;19.40;99.90
33149;DHT22;19506;51.040;3.856;2023-05-21T09:45:25;19.50;99.90
33149;DHT22;19506;51.040;3.856;2023-05-21T09:47:52;19.50;99.90
33149;DHT22;19506;51.040;3.856;2023-05-21T09:50:25;19.50;99.90
33149;DHT22;19506;51.040;3.856;2023-05-21T09:52:52;19.50;99.90
33149;DHT22;19506;51.040;3.856;2023-05-21T09:55:25;19.50;99.90
33149;DHT22;19506;51.040;3.856;2023-05-21T09:57:52;19.50;99.90
33149;DHT22;19506;51.040;3.856;2023-05-21T10:00:24;19.50;99.90
33149;DHT22;19506;51.040;3.856;2023-05-21T10:02:56;19.50;99.90
33149;DHT22;19506;51.040;3.856;2023-05-21T10:05:27;19.60;99.90
33149;DHT22;19506;51.040;3.856;2023-05-21T10:08:00;19.60;99.90
33149;DHT22;19506;51.040;3.856;2023-05-21T10:10:28;19.60;99.90
33149;DHT22;19506;51.040;3.856;2023-05-21T10:15:23;19.60;99.90
33149;DHT22;19506;51.040;3.856;2023-05-21T10:17:51;19.60;99.90
33149;DHT22;19506;51.040;3.856;2023-05-21T10:20:17;19.70;99.90
33149;DHT22;19506;51.040;3.856;2023-05-21T10:22:44;19.60;99.90
33149;DHT22;19506;51.040;3.856;2023-05-21T10:25:12;19.60;99.90
33149;DHT22;19506;51.040;3.856;2023-05-21T10:27:38;19.60;99.90
33149;DHT22;19506;51.040;3.856;2023-05-21T10:30:05;19.70;99.90
33149;DHT22;19506;51.040;3.856;2023-05-21T10:32:31;19.60;99.90
33149;DHT22;19506;51.040;3.856;2023-05-21T10:34:57;19.70;99.90
33149;DHT22;19506;51.040;3.856;2023-05-21T10:37:24;19.70;99.90
33149;DHT22;19506;51.040;3.856;2023-05-21T10:39:53;19.80;99.90
33149;DHT22;19506;51.040;3.856;2023-05-21T10:49:02;19.80;99.90
33149;DHT22;19506;51.040;3.856;2023-05-21T10:51:21;19.90;99.90
33149;DHT22;19506;51.040;3.856;2023-05-21T10:56:50;19.90;99.90
33149;DHT22;19506;51.040;3.856;2023-05-21T11:02:06;19.90;99.90
33149;DHT22;19506;51.040;3.856;2023-05-21T11:04:33;19.90;99.90
33149;DHT22;19506;51.040;3.856;2023-05-21T11:07:04;19.90;99.90
33149;DHT22;19506;51.040;3.856;2023-05-21T11:09:30;19.90;99.90
33149;DHT22;19506;51.040;3.856;2023-05-21T11:11:57;19.90;99.90
33149;DHT22;19506;51.040;3.856;2023-05-21T11:14:39;19.80;99.90
33149;DHT22;19506;51.040;3.856;2023-05-21T11:22:00;19.90;99.90
33149;DHT22;19506;51.040;3.856;2023-05-21T11:24:25;19.90;99.90
33149;DHT22;19506;51.040;3.856;2023-05-21T11:29:43;19.90;99.90
33149;DHT22;19506;51.040;3.856;2023-05-21T11:32:13;19.90;99.90
33149;DHT22;19506;51.040;3.856;2023-05-21T11:34:44;20.00;99.90
33149;DHT22;19506;51.040;3.856;2023-05-21T11:39:43;20.10;99.90
33149;DHT22;19506;51.040;3.856;2023-05-21T11:42:09;20.10;99.90
33149;DHT22;19506;51.040;3.856;2023-05-21T11:44:46;20.00;99.90
33149;DHT22;19506;51.040;3.856;2023-05-21T11:47:16;20.10;99.90
33149;DHT22;19506;51.040;3.856;2023-05-21T11:49:42;20.10;99.90
33149;DHT22;19506;51.040;3.856;2023-05-21T11:52:09;20.20;99.90
33149;DHT22;19506;51.040;3.856;2023-05-21T11:54:43;20.20;99.90
33149;DHT22;19506;51.040;3.856;2023-05-21T11:57:11;20.20;99.90
33149;DHT22;19506;51.040;3.856;2023-05-21T11:59:36;20.10;99.90
33149;DHT22;19506;51.040;3.856;2023-05-21T12:02:03;20.10;99.90
33149;DHT22;19506;51.040;3.856;2023-05-21T12:04:30;20.10;99.90
33149;DHT22;19506;51.040;3.856;2023-05-21T12:06:56;20.10;99.90
33149;DHT22;19506;51.040;3.856;2023-05-21T12:09:23;20.10;99.90
33149;DHT22;19506;51.040;3.856;2023-05-21T12:14:16;20.10;99.90
33149;DHT22;19506;51.040;3.856;2023-05-21T12:19:08;20.10;99.90
33149;DHT22;19506;51.040;3.856;2023-05-21T12:21:34;20.20;99.90
33149;DHT22;19506;51.040;3.856;2023-05-21T12:26:27;20.10;99.90
33149;DHT22;19506;51.040;3.856;2023-05-21T12:28:54;20.10;99.90
33149;DHT22;19506;51.040;3.856;2023-05-21T12:31:21;20.10;99.90
33149;DHT22;19506;51.040;3.856;2023-05-21T12:33:50;20.10;99.90
33149;DHT22;19506;51.040;3.856;2023-05-21T12:36:26;20.10;99.90
33149;DHT22;19506;51.040;3.856;2023-05-21T12:38:53;20.10;99.90
33149;DHT22;19506;51.040;3.856;2023-05-21T12:43:45;20.20;99.90
33149;DHT22;19506;51.040;3.856;2023-05-21T12:46:11;20.20;99.90
33149;DHT22;19506;51.040;3.856;2023-05-21T12:48:39;20.40;99.90
33149;DHT22;19506;51.040;3.856;2023-05-21T12:51:07;20.30;99.90
33149;DHT22;19506;51.040;3.856;2023-05-21T12:56:11;20.30;99.90
33149;DHT22;19506;51.040;3.856;2023-05-21T13:01:08;20.30;99.90
33149;DHT22;19506;51.040;3.856;2023-05-21T13:03:35;20.40;99.90
33149;DHT22;19506;51.040;3.856;2023-05-21T13:06:01;20.40;99.90
33149;DHT22;19506;51.040;3.856;2023-05-21T13:08:27;20.40;99.90
33149;DHT22;19506;51.040;3.856;2023-05-21T13:10:53;20.40;99.90
33149;DHT22;19506;51.040;3.856;2023-05-21T13:13:19;20.40;99.90
33149;DHT22;19506;51.040;3.856;2023-05-21T13:15:45;20.40;99.90
33149;DHT22;19506;51.040;3.856;2023-05-21T13:18:10;20.30;99.90
33149;DHT22;19506;51.040;3.856;2023-05-21T13:20:40;20.30;99.90
33149;DHT22;19506;51.040;3.856;2023-05-21T13:23:05;20.40;99.90
33149;DHT22;19506;51.040;3.856;2023-05-21T13:28:02;20.40;99.90
33149;DHT22;19506;51.040;3.856;2023-05-21T13:30:29;20.40;99.90
33149;DHT22;19506;51.040;3.856;2023-05-21T13:32:55;20.40;99.90
33149;DHT22;19506;51.040;3.856;2023-05-21T13:35:21;20.40;99.90
33149;DHT22;19506;51.040;3.856;2023-05-21T13:37:46;20.40;99.90
33149;DHT22;19506;51.040;3.856;2023-05-21T13:40:13;20.50;99.90
33149;DHT22;19506;51.040;3.856;2023-05-21T13:42:39;20.40;99.90
33149;DHT22;19506;51.040;3.856;2023-05-21T13:45:10;20.40;99.90
33149;DHT22;19506;51.040;3.856;2023-05-21T13:47:37;20.40;99.90
33149;DHT22;19506;51.040;3.856;2023-05-21T13:50:03;20.60;99.90
33149;DHT22;19506;51.040;3.856;2023-05-21T13:52:29;20.50;99.90
33149;DHT22;19506;51.040;3.856;2023-05-21T13:54:55;20.40;99.90
33149;DHT22;19506;51.040;3.856;2023-05-21T13:57:20;20.30;99.90
33149;DHT22;19506;51.040;3.856;2023-05-21T13:59:46;20.30;99.90
33149;DHT22;19506;51.040;3.856;2023-05-21T14:02:12;20.30;99.90
33149;DHT22;19506;51.040;3.856;2023-05-21T14:04:38;20.20;99.90
33149;DHT22;19506;51.040;3.856;2023-05-21T14:07:04;20.20;99.90
33149;DHT22;19506;51.040;3.856;2023-05-21T14:09:30;20.30;99.90
33149;DHT22;19506;51.040;3.856;2023-05-21T14:11:56;20.20;99.90
33149;DHT22;19506;51.040;3.856;2023-05-21T14:14:23;20.20;99.90
33149;DHT22;19506;51.040;3.856;2023-05-21T14:16:49;20.30;99.90
33149;DHT22;19506;51.040;3.856;2023-05-21T14:19:15;20.30;99.90
33149;DHT22;19506;51.040;3.856;2023-05-21T14:21:41;20.20;99.90
33149;DHT22;19506;51.040;3.856;2023-05-21T14:24:07;20.30;99.90
33149;DHT22;19506;51.040;3.856;2023-05-21T14:26:33;20.70;99.90
33149;DHT22;19506;51.040;3.856;2023-05-21T14:29:01;20.80;99.90
33149;DHT22;19506;51.040;3.856;2023-05-21T14:31:27;20.80;99.90
33149;DHT22;19506;51.040;3.856;2023-05-21T14:33:52;20.70;99.90
33149;DHT22;19506;51.040;3.856;2023-05-21T14:36:18;20.60;99.90
33149;DHT22;19506;51.040;3.856;2023-05-21T14:38:44;20.50;99.90
33149;DHT22;19506;51.040;3.856;2023-05-21T14:41:10;20.50;99.90
33149;DHT22;19506;51.040;3.856;2023-05-21T14:43:35;20.50;99.90
33149;DHT22;19506;51.040;3.856;2023-05-21T14:46:01;20.40;99.90
33149;DHT22;19506;51.040;3.856;2023-05-21T14:48:27;20.30;99.90
33149;DHT22;19506;51.040;3.856;2023-05-21T14:50:52;20.30;99.90
33149;DHT22;19506;51.040;3.856;2023-05-21T14:53:18;20.30;99.90
33149;DHT22;19506;51.040;3.856;2023-05-21T14:55:44;20.30;99.90
33149;DHT22;19506;51.040;3.856;2023-05-21T14:58:10;20.30;99.90
33149;DHT22;19506;51.040;3.856;2023-05-21T15:00:37;20.40;99.90
33149;DHT22;19506;51.040;3.856;2023-05-21T15:03:03;20.40;99.90
33149;DHT22;19506;51.040;3.856;2023-05-21T15:05:29;20.40;99.90
33149;DHT22;19506;51.040;3.856;2023-05-21T15:07:56;20.40;99.90
33149;DHT22;19506;51.040;3.856;2023-05-21T15:10:23;20.40;99.90
33149;DHT22;19506;51.040;3.856;2023-05-21T15:12:49;20.40;99.90
33149;DHT22;19506;51.040;3.856;2023-05-21T15:15:15;20.50;99.90
33149;DHT22;19506;51.040;3.856;2023-05-21T15:17:42;20.50;99.90
33149;DHT22;19506;51.040;3.856;2023-05-21T15:20:08;20.60;99.90
33149;DHT22;19506;51.040;3.856;2023-05-21T15:22:34;20.60;99.90
33149;DHT22;19506;51.040;3.856;2023-05-21T15:25:01;20.60;99.90
33149;DHT22;19506;51.040;3.856;2023-05-21T15:27:27;20.60;99.90
33149;DHT22;19506;51.040;3.856;2023-05-21T15:29:53;20.60;99.90
33149;DHT22;19506;51.040;3.856;2023-05-21T15:32:19;20.70;99.90
33149;DHT22;19506;51.040;3.856;2023-05-21T15:34:48;20.70;99.90
33149;DHT22;19506;51.040;3.856;2023-05-21T15:37:14;20.70;99.90
33149;DHT22;19506;51.040;3.856;2023-05-21T15:39:45;20.60;99.90
33149;DHT22;19506;51.040;3.856;2023-05-21T15:42:11;20.70;99.90
33149;DHT22;19506;51.040;3.856;2023-05-21T15:44:37;20.70;99.90
33149;DHT22;19506;51.040;3.856;2023-05-21T15:47:03;20.60;99.90
33149;DHT22;19506;51.040;3.856;2023-05-21T15:49:29;20.60;99.90
33149;DHT22;19506;51.040;3.856;2023-05-21T15:51:56;20.60;99.90
33149;DHT22;19506;51.040;3.856;2023-05-21T15:54:23;20.60;99.90
33149;DHT22;19506;51.040;3.856;2023-05-21T15:56:48;20.60;99.90
33149;DHT22;19506;51.040;3.856;2023-05-21T15:59:14;20.60;99.90
33149;DHT22;19506;51.040;3.856;2023-05-21T16:01:40;20.60;99.90
33149;DHT22;19506;51.040;3.856;2023-05-21T16:04:06;20.60;99.90
33149;DHT22;19506;51.040;3.856;2023-05-21T16:06:32;20.60;99.90
33149;DHT22;19506;51.040;3.856;2023-05-21T16:08:58;20.60;99.90
33149;DHT22;19506;51.040;3.856;2023-05-21T16:11:25;20.60;99.90
33149;DHT22;19506;51.040;3.856;2023-05-21T16:13:51;20.50;99.90